Time;durP1;ratioP1;P1;durP2;ratioP2;P2;SDS_P1;SDS_P2;PMS_P1;PMS_P2;Temp;Humidity;BMP_temperature;BMP_pressure;BME280_temperature;BME280_humidity;BME280_pressure;Samples;Min_cycle;Max_cycle;Signal;HPM_P1;HPM_P2
2023/12/09 00:00:27;;;;;;;17.13;16.60;;;21.80;48.30;;;;;;5012102;28;20497;-71
2023/12/09 00:02:54;;;;;;;17.03;16.43;;;21.80;48.40;;;;;;5012075;28;20505;-71
2023/12/09 00:05:20;;;;;;;16.50;16.10;;;21.80;48.40;;;;;;5012009;28;20469;-71
2023/12/09 00:07:47;;;;;;;18.33;17.70;;;21.80;48.50;;;;;;5012112;28;20480;-71
2023/12/09 00:10:14;;;;;;;17.40;16.70;;;21.80;48.50;;;;;;5011785;28;20489;-71
2023/12/09 00:12:42;;;;;;;16.53;16.10;;;21.80;48.60;;;;;;5011943;28;20445;-71
2023/12/09 00:15:10;;;;;;;16.97;16.47;;;21.80;48.70;;;;;;5011834;28;20484;-71
2023/12/09 00:17:37;;;;;;;17.00;16.50;;;21.80;48.70;;;;;;5012155;28;20439;-71
2023/12/09 00:20:05;;;;;;;16.50;16.00;;;21.70;48.70;;;;;;5011893;28;20504;-71
2023/12/09 00:22:32;;;;;;;16.37;15.87;;;21.70;48.70;;;;;;5011867;28;20484;-71
2023/12/09 00:24:59;;;;;;;16.73;16.13;;;21.70;48.70;;;;;;5011944;28;20478;-71
2023/12/09 00:27:26;;;;;;;17.00;16.50;;;21.70;48.70;;;;;;5011967;28;20445;-71
2023/12/09 00:29:54;;;;;;;16.60;16.10;;;21.70;48.70;;;;;;5011822;28;20489;-71
2023/12/09 00:32:21;;;;;;;17.03;16.53;;;21.70;48.80;;;;;;5011780;28;20475;-71
2023/12/09 00:34:48;;;;;;;17.37;16.77;;;21.70;48.80;;;;;;5012091;28;20466;-71
2023/12/09 00:37:15;;;;;;;16.17;15.70;;;21.70;48.80;;;;;;5011643;28;20469;-71
2023/12/09 00:39:42;;;;;;;16.90;16.33;;;21.70;48.80;;;;;;5011524;28;21000;-71
2023/12/09 00:42:10;;;;;;;18.30;17.73;;;21.70;49.50;;;;;;5011416;28;20513;-71
2023/12/09 00:44:37;;;;;;;16.90;16.37;;;21.60;48.90;;;;;;5011626;28;20862;-71
2023/12/09 00:47:05;;;;;;;17.47;16.67;;;21.60;49.00;;;;;;5011584;28;20477;-71
2023/12/09 00:49:32;;;;;;;18.07;17.47;;;21.60;49.00;;;;;;5011660;28;20609;-72
2023/12/09 00:51:59;;;;;;;17.67;17.17;;;21.60;49.00;;;;;;5011407;28;20480;-71
2023/12/09 00:54:26;;;;;;;18.00;17.40;;;21.60;49.30;;;;;;5011746;28;20469;-71
2023/12/09 00:56:53;;;;;;;17.40;16.87;;;21.60;49.00;;;;;;5011628;28;20504;-71
2023/12/09 00:59:20;;;;;;;17.03;16.53;;;21.60;49.10;;;;;;5012390;28;20995;-72
2023/12/09 01:01:47;;;;;;;18.53;17.93;;;21.60;49.00;;;;;;5015323;28;21021;-72
2023/12/09 01:04:15;;;;;;;18.00;17.43;;;21.60;49.00;;;;;;5015501;28;20869;-71
2023/12/09 01:06:42;;;;;;;16.73;16.23;;;21.60;48.90;;;;;;5015322;28;20878;-72
2023/12/09 01:09:09;;;;;;;18.00;17.40;;;21.50;48.70;;;;;;5015205;28;20501;-71
2023/12/09 01:11:36;;;;;;;18.40;17.90;;;21.50;48.90;;;;;;5015256;28;20496;-71
2023/12/09 01:14:03;;;;;;;17.70;17.20;;;21.50;48.90;;;;;;5014948;28;20473;-71
2023/12/09 01:16:30;;;;;;;17.17;16.40;;;21.50;48.90;;;;;;5015328;28;20880;-71
2023/12/09 01:18:56;;;;;;;17.27;16.77;;;21.50;48.90;;;;;;5015125;28;20520;-71
2023/12/09 01:21:25;;;;;;;17.37;16.87;;;21.50;48.90;;;;;;5015162;28;20470;-71
2023/12/09 01:23:51;;;;;;;17.00;16.37;;;21.50;48.80;;;;;;5014901;28;20517;-71
2023/12/09 01:26:18;;;;;;;16.80;16.20;;;21.50;48.70;;;;;;5014917;28;20925;-72
2023/12/09 01:28:45;;;;;;;17.63;17.03;;;21.50;48.70;;;;;;5015011;28;20890;-72
2023/12/09 01:31:12;;;;;;;15.97;15.47;;;21.40;48.60;;;;;;5014905;28;20470;-71
2023/12/09 01:33:39;;;;;;;17.20;16.70;;;21.40;48.60;;;;;;5014819;28;20462;-71
2023/12/09 01:36:06;;;;;;;17.60;17.10;;;21.40;48.60;;;;;;5014849;28;20944;-71
2023/12/09 01:38:35;;;;;;;17.20;16.70;;;21.40;48.70;;;;;;5014690;28;20501;-71
2023/12/09 01:41:02;;;;;;;17.87;17.30;;;21.40;48.60;;;;;;5014799;28;20493;-71
2023/12/09 01:43:29;;;;;;;17.37;16.87;;;21.40;48.60;;;;;;5014548;28;20508;-70
2023/12/09 01:46:05;;;;;;;17.10;16.60;;;21.30;48.60;;;;;;5014706;28;20507;-71
2023/12/09 01:48:32;;;;;;;16.50;16.10;;;21.30;48.50;;;;;;5007679;28;20494;-71
2023/12/09 01:51:00;;;;;;;17.10;16.60;;;21.30;48.50;;;;;;5014870;28;20491;-71
2023/12/09 01:53:28;;;;;;;16.73;16.23;;;21.30;48.50;;;;;;5009511;28;20843;-71
2023/12/09 01:55:57;;;;;;;17.30;16.80;;;21.30;48.50;;;;;;5014250;28;20976;-71
2023/12/09 02:01:01;;;;;;;20.77;20.23;;;21.30;48.60;;;;;;4993733;28;21064;-67
2023/12/09 02:03:27;;;;;;;17.53;17.03;;;21.30;48.70;;;;;;4987270;28;20913;-67
2023/12/09 02:05:54;;;;;;;17.30;16.80;;;21.20;48.70;;;;;;4986690;28;20470;-67
2023/12/09 02:08:21;;;;;;;17.60;17.00;;;21.20;48.80;;;;;;4983914;28;20562;-67
2023/12/09 02:10:56;;;;;;;16.77;16.37;;;21.20;48.80;;;;;;4983016;28;20487;-67
2023/12/09 02:13:31;;;;;;;17.10;16.60;;;21.20;48.90;;;;;;4993042;28;20473;-67
2023/12/09 02:16:03;;;;;;;17.17;16.67;;;21.20;48.80;;;;;;4993158;28;20462;-67
2023/12/09 02:18:31;;;;;;;15.80;15.40;;;21.20;48.90;;;;;;4986923;28;20855;-67
2023/12/09 02:20:58;;;;;;;17.23;16.73;;;21.10;48.90;;;;;;4986663;28;20478;-67
2023/12/09 02:23:26;;;;;;;17.03;16.53;;;21.10;48.90;;;;;;4987981;28;20513;-67
2023/12/09 02:26:01;;;;;;;16.67;16.07;;;21.10;49.00;;;;;;4986395;28;20463;-67
2023/12/09 02:28:29;;;;;;;17.23;16.73;;;21.10;49.10;;;;;;4986453;28;20471;-70
2023/12/09 02:31:00;;;;;;;17.60;17.10;;;21.10;49.20;;;;;;4987178;28;20448;-68
2023/12/09 02:33:29;;;;;;;16.37;15.93;;;21.20;49.50;;;;;;4993572;28;20475;-68
2023/12/09 02:35:56;;;;;;;16.50;16.10;;;21.20;49.40;;;;;;4987142;28;20472;-68
2023/12/09 02:38:27;;;;;;;16.37;15.87;;;21.20;49.50;;;;;;4993742;28;20474;-67
2023/12/09 02:40:54;;;;;;;21.43;20.73;;;21.20;49.80;;;;;;4986475;28;20467;-68
2023/12/09 02:43:20;;;;;;;18.03;17.53;;;21.30;49.80;;;;;;4987544;28;20514;-68
2023/12/09 02:45:47;;;;;;;17.03;16.63;;;21.30;49.70;;;;;;4988064;28;20471;-68
2023/12/09 02:48:14;;;;;;;17.00;16.60;;;21.30;49.70;;;;;;4984082;28;20479;-67
2023/12/09 02:50:42;;;;;;;17.27;16.77;;;21.30;49.80;;;;;;4984582;28;20494;-68
2023/12/09 02:53:09;;;;;;;17.03;16.53;;;21.30;49.90;;;;;;4993172;28;20475;-67
2023/12/09 02:55:37;;;;;;;17.17;16.70;;;21.30;49.90;;;;;;4980040;28;20443;-68
2023/12/09 02:58:04;;;;;;;18.50;18.00;;;21.40;49.90;;;;;;4985745;28;20483;-67
2023/12/09 03:00:31;;;;;;;17.20;16.70;;;21.40;49.90;;;;;;4985030;28;20526;-68
2023/12/09 03:02:58;;;;;;;17.43;17.00;;;21.40;50.00;;;;;;4993540;28;21076;-67
2023/12/09 03:05:25;;;;;;;16.53;16.10;;;21.40;50.00;;;;;;4990972;28;20849;-67
2023/12/09 03:07:52;;;;;;;18.10;17.60;;;21.40;49.90;;;;;;4982188;28;20815;-68
2023/12/09 03:10:19;;;;;;;18.73;18.13;;;21.40;50.00;;;;;;4990641;28;20505;-68
2023/12/09 03:12:47;;;;;;;16.80;16.30;;;21.40;49.90;;;;;;4993666;28;20470;-68
2023/12/09 03:15:14;;;;;;;18.80;18.30;;;21.40;49.90;;;;;;4992003;28;20474;-68
2023/12/09 03:17:42;;;;;;;17.87;17.23;;;21.40;49.90;;;;;;4982215;28;20475;-68
2023/12/09 03:20:10;;;;;;;17.53;16.83;;;21.40;50.00;;;;;;4982557;28;20547;-68
2023/12/09 03:22:37;;;;;;;17.33;16.80;;;21.40;49.90;;;;;;4992030;28;20474;-68
2023/12/09 03:25:04;;;;;;;16.90;16.50;;;21.40;49.80;;;;;;4985465;28;20483;-68
2023/12/09 03:27:31;;;;;;;16.40;16.00;;;21.40;49.80;;;;;;4977569;28;20462;-67
2023/12/09 03:30:00;;;;;;;16.97;16.47;;;21.40;49.80;;;;;;4992523;28;20978;-68
2023/12/09 03:32:27;;;;;;;16.27;15.80;;;21.40;49.90;;;;;;4993389;28;20439;-67
2023/12/09 03:34:53;;;;;;;17.60;17.10;;;21.40;49.90;;;;;;4978747;28;20871;-68
2023/12/09 03:37:20;;;;;;;16.40;16.00;;;21.40;49.90;;;;;;4984029;28;20471;-68
2023/12/09 03:39:46;;;;;;;17.83;17.23;;;21.40;50.00;;;;;;4987905;28;20495;-68
2023/12/09 03:42:13;;;;;;;17.97;17.47;;;21.40;49.90;;;;;;4993089;28;20969;-68
2023/12/09 03:44:40;;;;;;;16.37;15.83;;;21.40;49.90;;;;;;4980592;28;20287;-68
2023/12/09 03:47:08;;;;;;;16.20;15.80;;;21.40;49.90;;;;;;4981655;28;20812;-68
2023/12/09 03:49:35;;;;;;;16.47;16.00;;;21.40;50.00;;;;;;4992302;28;20497;-68
2023/12/09 03:52:02;;;;;;;15.87;15.43;;;21.50;50.10;;;;;;4992929;28;20954;-68
2023/12/09 03:54:29;;;;;;;16.00;15.60;;;21.50;50.00;;;;;;4981683;28;20576;-68
2023/12/09 03:56:56;;;;;;;16.10;15.70;;;21.50;50.10;;;;;;4981399;28;20479;-68
2023/12/09 03:59:22;;;;;;;16.23;15.83;;;21.50;50.10;;;;;;4990808;28;20495;-68
2023/12/09 04:01:50;;;;;;;16.60;16.10;;;21.50;50.10;;;;;;4986897;28;20475;-68
2023/12/09 04:04:18;;;;;;;16.13;15.73;;;21.50;50.10;;;;;;4982648;28;20484;-68
2023/12/09 04:06:45;;;;;;;17.47;16.97;;;21.50;50.00;;;;;;4984528;28;20474;-68
2023/12/09 04:09:12;;;;;;;17.20;16.70;;;21.50;50.00;;;;;;4983713;28;20509;-68
2023/12/09 04:11:39;;;;;;;16.00;15.60;;;21.50;50.10;;;;;;4992647;28;20487;-68
2023/12/09 04:14:05;;;;;;;16.50;16.03;;;21.50;50.10;;;;;;4976714;28;20472;-67
2023/12/09 04:16:32;;;;;;;17.27;16.57;;;21.50;50.20;;;;;;4988916;28;20478;-68
2023/12/09 04:18:59;;;;;;;17.40;16.80;;;21.50;50.10;;;;;;4981241;28;20507;-68
2023/12/09 04:21:27;;;;;;;17.37;16.77;;;21.50;50.10;;;;;;4992274;28;20471;-68
2023/12/09 04:23:54;;;;;;;16.30;15.90;;;21.50;50.20;;;;;;4992409;28;20506;-68
2023/12/09 04:26:21;;;;;;;17.20;16.70;;;21.50;50.10;;;;;;4990362;28;20479;-68
2023/12/09 04:28:48;;;;;;;17.30;16.83;;;21.50;50.20;;;;;;4972876;28;20496;-68
2023/12/09 04:31:15;;;;;;;17.13;16.63;;;21.50;50.10;;;;;;4991009;28;21229;-67
2023/12/09 04:33:44;;;;;;;17.70;17.20;;;21.50;50.20;;;;;;4987673;28;20436;-67
2023/12/09 04:36:11;;;;;;;17.10;16.57;;;21.50;50.20;;;;;;4981249;28;20459;-68
2023/12/09 04:38:39;;;;;;;16.80;16.20;;;21.50;50.10;;;;;;4984150;28;20470;-67
2023/12/09 04:41:06;;;;;;;17.30;16.80;;;21.50;50.20;;;;;;4991207;28;20474;-68
2023/12/09 04:43:33;;;;;;;17.47;16.97;;;21.50;50.10;;;;;;4972774;28;20511;-68
2023/12/09 04:46:01;;;;;;;16.20;15.80;;;21.50;50.40;;;;;;4972878;28;20475;-68
2023/12/09 04:48:28;;;;;;;18.03;17.53;;;21.50;50.30;;;;;;4972697;28;20480;-68
2023/12/09 04:50:55;;;;;;;17.30;16.70;;;21.50;50.20;;;;;;4988051;28;20855;-68
2023/12/09 04:53:22;;;;;;;16.67;15.97;;;21.60;50.30;;;;;;4992470;28;20493;-68
2023/12/09 04:55:50;;;;;;;17.10;16.40;;;21.60;50.30;;;;;;4991655;28;20470;-67
2023/12/09 04:58:17;;;;;;;17.17;16.60;;;21.60;50.40;;;;;;4984784;28;20475;-67
2023/12/09 05:00:44;;;;;;;16.60;16.20;;;21.60;50.60;;;;;;4973113;28;20503;-68
2023/12/09 05:03:11;;;;;;;16.83;16.33;;;21.60;50.50;;;;;;4972776;28;20515;-68
2023/12/09 05:05:38;;;;;;;17.63;16.80;;;21.60;50.30;;;;;;4972729;28;20448;-67
2023/12/09 05:08:05;;;;;;;16.00;15.60;;;21.70;50.40;;;;;;4977930;28;20444;-67
2023/12/09 05:10:32;;;;;;;17.03;16.53;;;21.70;50.50;;;;;;4991692;28;20497;-68
2023/12/09 05:13:00;;;;;;;17.30;16.80;;;21.70;50.60;;;;;;4992138;28;20482;-68
2023/12/09 05:15:27;;;;;;;16.43;16.03;;;21.70;50.50;;;;;;4992093;28;20882;-68
2023/12/09 05:17:54;;;;;;;16.80;16.40;;;21.70;50.40;;;;;;4991850;28;21022;-68
2023/12/09 05:20:22;;;;;;;17.10;16.50;;;21.70;50.50;;;;;;4992107;28;20498;-68
2023/12/09 05:22:49;;;;;;;16.73;16.23;;;21.70;50.80;;;;;;4992279;28;20538;-67
2023/12/09 05:25:16;;;;;;;17.00;16.43;;;21.70;50.60;;;;;;4991561;28;20474;-68
2023/12/09 05:27:42;;;;;;;17.10;16.50;;;21.70;50.70;;;;;;4989827;28;20958;-68
2023/12/09 05:30:12;;;;;;;16.70;16.20;;;21.70;50.60;;;;;;4991366;28;20502;-68
2023/12/09 05:32:39;;;;;;;16.23;15.83;;;21.80;50.70;;;;;;4991951;28;20479;-68
2023/12/09 05:35:07;;;;;;;16.90;16.40;;;21.80;50.70;;;;;;4991992;28;20450;-68
2023/12/09 05:37:33;;;;;;;16.27;15.87;;;21.80;50.60;;;;;;4991808;28;20985;-68
2023/12/09 05:40:00;;;;;;;16.60;16.20;;;21.80;50.70;;;;;;4975008;28;20904;-67
2023/12/09 05:42:27;;;;;;;17.57;16.87;;;21.80;50.70;;;;;;4972378;28;20522;-67
2023/12/09 05:44:54;;;;;;;16.90;16.40;;;21.80;50.70;;;;;;4972990;28;20483;-68
2023/12/09 05:47:24;;;;;;;16.50;15.93;;;21.80;50.80;;;;;;4975849;28;20942;-67
2023/12/09 05:49:51;;;;;;;16.00;15.60;;;21.80;50.60;;;;;;4976193;28;20470;-68
2023/12/09 05:52:18;;;;;;;17.40;16.93;;;21.80;50.70;;;;;;4975797;28;20842;-68
2023/12/09 05:54:45;;;;;;;18.57;17.50;;;21.80;50.90;;;;;;4975551;28;20483;-68
2023/12/09 05:57:12;;;;;;;16.60;16.10;;;21.90;51.00;;;;;;4975714;28;20475;-68
2023/12/09 05:59:39;;;;;;;16.23;15.67;;;21.90;51.00;;;;;;4988968;28;20474;-67
2023/12/09 06:02:06;;;;;;;17.33;16.83;;;21.90;50.90;;;;;;4995078;28;20467;-68
2023/12/09 06:04:34;;;;;;;17.43;16.93;;;21.90;50.90;;;;;;4994931;28;20569;-67
2023/12/09 06:07:01;;;;;;;17.40;16.73;;;21.90;50.80;;;;;;4995223;28;20475;-67
2023/12/09 06:09:28;;;;;;;16.53;16.03;;;21.90;50.70;;;;;;4982717;28;20467;-68
2023/12/09 06:11:55;;;;;;;17.27;16.77;;;21.90;50.90;;;;;;4975439;28;20507;-67
2023/12/09 06:14:22;;;;;;;16.10;15.60;;;21.90;50.80;;;;;;4975462;28;20447;-67
2023/12/09 06:16:49;;;;;;;16.03;15.60;;;21.90;50.80;;;;;;4975301;28;20476;-68
2023/12/09 06:19:16;;;;;;;16.63;16.13;;;21.90;50.90;;;;;;4975769;28;20495;-68
2023/12/09 06:21:44;;;;;;;16.80;16.10;;;21.90;50.90;;;;;;4975664;28;20482;-68
2023/12/09 06:24:13;;;;;;;17.30;16.80;;;21.90;51.00;;;;;;4975058;28;20519;-68
2023/12/09 06:26:44;;;;;;;17.47;16.97;;;22.00;51.30;;;;;;4975212;28;20507;-67
2023/12/09 06:29:13;;;;;;;17.00;16.50;;;21.90;51.10;;;;;;4983379;28;20463;-67
2023/12/09 06:31:40;;;;;;;17.17;16.67;;;22.00;51.10;;;;;;4994222;28;20442;-68
2023/12/09 06:34:07;;;;;;;16.87;16.37;;;22.00;51.40;;;;;;4994510;28;20863;-68
2023/12/09 06:36:34;;;;;;;16.43;16.03;;;22.00;51.40;;;;;;4994451;28;20874;-67
2023/12/09 06:39:02;;;;;;;15.50;15.10;;;22.00;51.20;;;;;;4987303;28;20893;-68
2023/12/09 06:41:29;;;;;;;17.20;16.70;;;22.00;51.30;;;;;;4974909;28;20448;-68
2023/12/09 06:43:56;;;;;;;16.50;16.00;;;22.00;51.30;;;;;;4974692;28;20519;-68
2023/12/09 06:46:22;;;;;;;17.00;16.50;;;22.00;51.20;;;;;;4974754;28;20475;-68
2023/12/09 06:48:49;;;;;;;16.03;15.63;;;22.00;51.30;;;;;;4979668;28;20478;-67
2023/12/09 06:51:16;;;;;;;17.93;17.43;;;22.00;51.30;;;;;;4994115;28;20482;-67
2023/12/09 06:53:44;;;;;;;17.60;17.10;;;22.10;51.50;;;;;;4993698;28;20892;-68
2023/12/09 06:56:20;;;;;;;16.57;16.17;;;22.10;51.50;;;;;;4993519;28;20478;-68
2023/12/09 06:58:47;;;;;;;16.10;15.60;;;22.10;51.40;;;;;;4993333;28;20829;-68
2023/12/09 07:01:20;;;;;;;16.43;15.93;;;22.10;51.30;;;;;;4994017;28;20471;-68
2023/12/09 07:03:48;;;;;;;17.23;16.70;;;22.10;51.30;;;;;;4993893;28;20485;-68
2023/12/09 07:06:16;;;;;;;17.07;16.60;;;22.10;51.50;;;;;;4993951;28;20470;-68
2023/12/09 07:08:44;;;;;;;17.63;17.03;;;22.10;51.40;;;;;;4993806;28;20442;-68
2023/12/09 07:11:11;;;;;;;17.67;17.07;;;22.10;51.40;;;;;;4993854;28;20439;-68
2023/12/09 07:13:39;;;;;;;17.43;16.83;;;22.10;51.40;;;;;;4993713;28;20474;-68
2023/12/09 07:16:09;;;;;;;18.23;17.73;;;22.10;51.40;;;;;;4993666;28;20855;-67
2023/12/09 07:18:37;;;;;;;17.40;16.90;;;22.10;51.40;;;;;;4993255;28;20577;-68
2023/12/09 07:21:04;;;;;;;18.10;17.60;;;22.10;51.30;;;;;;4993553;28;20446;-68
2023/12/09 07:23:31;;;;;;;17.20;16.70;;;22.10;51.30;;;;;;4993477;28;20482;-68
2023/12/09 07:25:58;;;;;;;18.20;17.70;;;22.10;51.10;;;;;;4993412;28;20478;-68
2023/12/09 07:28:25;;;;;;;17.80;17.30;;;22.20;51.20;;;;;;4992562;28;20485;-68
2023/12/09 07:30:53;;;;;;;17.23;16.80;;;22.10;51.10;;;;;;4973863;28;20495;-67
2023/12/09 07:33:20;;;;;;;18.20;17.60;;;22.20;51.40;;;;;;4973947;28;20463;-67
2023/12/09 07:35:47;;;;;;;17.53;17.03;;;22.20;51.20;;;;;;4974014;28;20483;-67
2023/12/09 07:38:14;;;;;;;17.77;17.27;;;22.20;51.10;;;;;;4973991;28;20867;-67
2023/12/09 07:40:41;;;;;;;17.23;16.73;;;22.20;51.40;;;;;;4973939;28;20888;-67
2023/12/09 07:43:08;;;;;;;16.17;15.77;;;22.20;51.10;;;;;;4974001;28;20475;-68
2023/12/09 07:45:35;;;;;;;16.33;15.83;;;22.20;51.10;;;;;;4973697;28;20519;-66
2023/12/09 07:48:04;;;;;;;17.90;17.40;;;22.20;51.20;;;;;;4973713;28;20450;-72
2023/12/09 07:50:32;;;;;;;17.40;16.80;;;22.20;51.30;;;;;;4990190;28;20467;-71
2023/12/09 07:53:00;;;;;;;17.10;16.63;;;22.20;51.70;;;;;;4993183;28;20443;-68
2023/12/09 07:55:26;;;;;;;17.50;17.10;;;22.30;51.40;;;;;;4993494;28;20534;-69
2023/12/09 07:57:53;;;;;;;17.70;17.20;;;22.40;51.20;;;;;;4992919;28;20878;-70
2023/12/09 08:00:20;;;;;;;17.63;17.13;;;22.50;51.60;;;;;;5001716;23;20526;-70
2023/12/09 08:02:55;;;;;;;17.63;17.13;;;22.50;51.00;;;;;;4992656;28;20474;-67
2023/12/09 08:05:26;;;;;;;17.53;17.03;;;22.60;50.70;;;;;;4990793;28;20561;-68
2023/12/09 08:07:54;;;;;;;17.40;16.90;;;22.60;50.60;;;;;;4992340;28;20509;-71
2023/12/09 08:10:31;;;;;;;17.77;17.17;;;22.60;50.40;;;;;;4979936;28;20900;-71
2023/12/09 08:12:58;;;;;;;17.77;17.13;;;22.70;50.50;;;;;;4972627;28;20448;-71
2023/12/09 08:15:28;;;;;;;18.60;18.00;;;22.70;50.70;;;;;;4973077;28;20452;-70
2023/12/09 08:17:57;;;;;;;18.43;17.87;;;22.70;50.80;;;;;;4972944;28;20537;-69
2023/12/09 08:20:34;;;;;;;18.33;17.73;;;22.80;50.80;;;;;;4975917;28;20475;-69
2023/12/09 08:23:04;;;;;;;18.37;17.50;;;22.80;50.80;;;;;;4973308;28;20817;-69
2023/12/09 08:25:31;;;;;;;17.90;17.40;;;22.80;51.00;;;;;;4972508;28;20486;-67
2023/12/09 08:28:00;;;;;;;16.50;16.03;;;22.90;50.70;;;;;;4972688;28;20577;-68
2023/12/09 08:30:31;;;;;;;17.17;16.77;;;22.90;50.50;;;;;;4972802;28;20502;-70
2023/12/09 08:32:59;;;;;;;17.30;16.80;;;22.90;50.50;;;;;;4972693;28;20456;-74
2023/12/09 08:35:35;;;;;;;18.20;17.60;;;22.90;50.70;;;;;;4972906;28;20448;-70
2023/12/09 08:38:02;;;;;;;17.30;16.80;;;22.90;50.70;;;;;;4972804;28;20850;-68
2023/12/09 08:40:30;;;;;;;17.30;16.80;;;22.90;50.70;;;;;;4973421;28;20596;-74
2023/12/09 08:43:03;;;;;;;19.37;18.77;;;23.00;50.70;;;;;;4972668;28;20486;-72
2023/12/09 08:45:33;;;;;;;17.60;17.10;;;23.00;50.50;;;;;;4971479;28;20473;-70
2023/12/09 08:48:00;;;;;;;17.50;16.90;;;23.00;51.00;;;;;;4972649;28;20954;-72
2023/12/09 08:50:28;;;;;;;18.40;17.47;;;23.10;50.90;;;;;;4975053;28;20491;-71
2023/12/09 08:53:09;;;;;;;18.13;17.63;;;23.00;51.10;;;;;;4972392;28;20448;-71
2023/12/09 08:55:39;;;;;;;18.70;17.47;;;23.00;51.00;;;;;;4971616;28;20452;-72
2023/12/09 08:58:12;;;;;;;17.53;17.03;;;23.10;50.70;;;;;;4971472;28;20510;-72
2023/12/09 09:00:39;;;;;;;17.40;16.90;;;23.10;50.50;;;;;;4972019;28;20499;-72
2023/12/09 09:03:06;;;;;;;18.10;17.60;;;23.10;50.60;;;;;;4972514;28;20444;-74
2023/12/09 09:05:34;;;;;;;17.53;17.03;;;23.20;50.50;;;;;;4972455;28;20480;-73
2023/12/09 09:08:01;;;;;;;17.50;17.00;;;23.30;50.30;;;;;;4972797;28;20498;-73
2023/12/09 09:10:28;;;;;;;18.80;18.10;;;23.30;50.10;;;;;;4972131;28;20468;-72
2023/12/09 09:12:55;;;;;;;17.87;17.37;;;23.30;49.90;;;;;;4972271;28;20472;-72
2023/12/09 09:15:23;;;;;;;17.90;17.40;;;23.30;49.70;;;;;;4972465;28;20474;-72
2023/12/09 09:17:50;;;;;;;16.60;16.20;;;23.30;49.80;;;;;;4977123;28;20530;-73
2023/12/09 09:20:17;;;;;;;17.67;17.17;;;23.40;49.70;;;;;;4976591;28;20467;-71
2023/12/09 09:22:46;;;;;;;19.07;18.37;;;23.40;49.50;;;;;;4976362;28;20534;-72
2023/12/09 09:25:13;;;;;;;17.70;17.20;;;23.40;49.50;;;;;;4976191;28;20495;-73
2023/12/09 09:27:40;;;;;;;18.97;18.17;;;23.40;49.40;;;;;;4977734;28;20448;-74
2023/12/09 09:30:08;;;;;;;18.20;17.70;;;23.40;49.60;;;;;;4986672;28;20497;-69
2023/12/09 09:32:35;;;;;;;18.67;18.17;;;23.50;49.80;;;;;;4976585;28;20951;-69
2023/12/09 09:35:03;;;;;;;19.40;18.70;;;23.40;49.30;;;;;;4974772;28;20479;-70
2023/12/09 09:37:32;;;;;;;18.20;17.70;;;23.40;49.40;;;;;;4975661;28;20444;-70
2023/12/09 09:40:04;;;;;;;18.23;17.63;;;23.40;49.70;;;;;;4976011;28;20471;-71
2023/12/09 09:42:40;;;;;;;20.60;19.43;;;23.30;49.70;;;;;;4975693;28;20452;-71
2023/12/09 09:45:15;;;;;;;20.43;19.63;;;23.30;50.00;;;;;;4975659;28;20479;-71
2023/12/09 09:47:44;;;;;;;20.73;19.73;;;23.30;51.00;;;;;;4975641;28;20474;-71
2023/12/09 09:50:17;;;;;;;23.70;21.70;;;23.30;53.30;;;;;;4975502;28;20883;-74
2023/12/09 09:52:49;;;;;;;23.23;21.80;;;23.40;53.40;;;;;;4969064;28;20534;-71
2023/12/09 09:55:20;;;;;;;22.73;20.80;;;23.40;54.50;;;;;;4977960;28;20506;-70
2023/12/09 09:57:54;;;;;;;22.07;20.10;;;23.30;57.10;;;;;;4979904;28;20482;-72
2023/12/09 10:00:28;;;;;;;23.03;21.10;;;23.30;56.90;;;;;;4978588;28;20479;-72
2023/12/09 10:02:55;;;;;;;21.30;19.77;;;23.40;55.30;;;;;;4975428;28;20948;-71
2023/12/09 10:05:25;;;;;;;20.30;19.27;;;23.40;54.30;;;;;;4975091;28;20510;-71
2023/12/09 10:07:55;;;;;;;21.10;19.20;;;23.40;53.30;;;;;;4975590;28;20476;-71
2023/12/09 10:10:29;;;;;;;20.67;19.30;;;23.40;52.30;;;;;;4974900;28;20474;-71
2023/12/09 10:12:56;;;;;;;21.80;20.43;;;23.40;51.10;;;;;;4974161;28;21003;-71
2023/12/09 10:15:25;;;;;;;22.23;21.03;;;23.50;51.00;;;;;;4973455;28;20507;-71
2023/12/09 10:17:54;;;;;;;20.67;19.67;;;23.50;50.70;;;;;;4975022;28;20479;-70
2023/12/09 10:20:24;;;;;;;19.40;18.70;;;23.50;50.30;;;;;;4974191;28;20471;-71
2023/12/09 10:22:51;;;;;;;20.07;18.70;;;23.50;49.20;;;;;;4973849;28;20978;-71
2023/12/09 10:25:22;;;;;;;20.60;19.53;;;23.50;49.00;;;;;;4975028;28;20538;-71
2023/12/09 10:27:56;;;;;;;19.90;19.20;;;23.40;48.80;;;;;;4967687;28;20975;-71
2023/12/09 10:30:28;;;;;;;19.80;18.80;;;23.40;48.50;;;;;;4974823;28;20460;-71
2023/12/09 10:32:57;;;;;;;20.00;19.07;;;23.40;48.20;;;;;;4974872;28;20447;-71
2023/12/09 10:35:24;;;;;;;19.50;18.80;;;23.40;48.00;;;;;;4974743;28;20537;-71
2023/12/09 10:37:54;;;;;;;19.10;18.30;;;23.40;47.70;;;;;;4974745;28;20452;-71
2023/12/09 10:40:22;;;;;;;19.50;18.70;;;23.40;47.60;;;;;;4974672;28;20471;-70
2023/12/09 10:42:51;;;;;;;19.43;18.50;;;23.40;47.50;;;;;;4967392;28;20444;-71
2023/12/09 10:45:19;;;;;;;20.03;19.23;;;23.40;47.50;;;;;;4975024;28;20484;-71
2023/12/09 10:47:46;;;;;;;19.70;19.10;;;23.30;47.20;;;;;;4965891;28;20502;-71
2023/12/09 10:50:17;;;;;;;20.60;19.83;;;23.30;47.10;;;;;;4974501;28;20506;-72
2023/12/09 10:52:50;;;;;;;20.23;19.53;;;23.30;46.80;;;;;;4974540;28;20472;-72
2023/12/09 10:55:19;;;;;;;21.07;20.17;;;23.20;46.80;;;;;;4974408;28;20468;-70
2023/12/09 10:57:50;;;;;;;20.67;19.87;;;23.20;46.80;;;;;;4965798;28;20448;-71
2023/12/09 11:00:22;;;;;;;21.17;20.30;;;23.20;46.80;;;;;;4974123;28;21200;-71
2023/12/09 11:02:50;;;;;;;19.87;19.27;;;23.20;46.60;;;;;;4966252;28;20822;-71
2023/12/09 11:05:19;;;;;;;19.10;18.30;;;23.20;46.80;;;;;;4974289;28;20519;-71
2023/12/09 11:07:48;;;;;;;19.60;18.93;;;23.10;46.60;;;;;;4974032;28;20462;-71
2023/12/09 11:10:20;;;;;;;21.17;20.07;;;23.10;46.60;;;;;;4974105;28;20460;-73
2023/12/09 11:12:50;;;;;;;19.47;18.77;;;23.10;48.70;;;;;;4974041;28;20448;-70
2023/12/09 11:15:30;;;;;;;19.87;18.90;;;23.10;48.40;;;;;;4974131;28;20444;-72
2023/12/09 11:18:10;;;;;;;19.57;18.87;;;23.10;48.60;;;;;;4974136;28;20444;-71
2023/12/09 11:20:40;;;;;;;19.40;18.60;;;23.10;48.70;;;;;;4972367;28;20467;-70
2023/12/09 11:23:12;;;;;;;21.13;20.03;;;23.20;49.00;;;;;;4973892;28;20448;-69
2023/12/09 11:28:26;;;;;;;20.50;19.90;;;23.10;48.70;;;;;;4975059;28;20459;-70
2023/12/09 11:30:57;;;;;;;20.70;19.90;;;23.10;48.90;;;;;;4972539;28;20460;-71
2023/12/09 11:33:25;;;;;;;20.13;19.40;;;23.20;48.90;;;;;;4973583;28;20548;-71
2023/12/09 11:35:56;;;;;;;21.00;20.20;;;23.20;48.60;;;;;;4973710;28;20464;-70
2023/12/09 11:38:25;;;;;;;20.87;19.90;;;23.10;48.50;;;;;;4974032;28;20467;-71
2023/12/09 11:40:54;;;;;;;18.73;18.00;;;23.20;48.80;;;;;;4966008;28;20460;-72
2023/12/09 11:43:22;;;;;;;19.90;19.20;;;23.20;48.50;;;;;;4971884;28;20451;-70
2023/12/09 11:45:54;;;;;;;19.90;19.23;;;23.10;48.70;;;;;;4973255;28;20514;-71
2023/12/09 11:48:24;;;;;;;18.37;17.77;;;23.00;48.90;;;;;;4973315;28;20819;-71
2023/12/09 11:50:54;;;;;;;17.70;17.10;;;23.00;48.40;;;;;;4965719;28;20854;-71
2023/12/09 11:53:24;;;;;;;19.00;18.40;;;23.00;48.50;;;;;;4973091;28;20236;-70
2023/12/09 11:55:52;;;;;;;18.30;17.70;;;23.10;48.70;;;;;;4964590;28;20507;-72
2023/12/09 11:58:20;;;;;;;17.93;17.33;;;23.20;49.20;;;;;;4973440;28;20460;-71
2023/12/09 12:00:47;;;;;;;20.53;19.83;;;23.20;49.20;;;;;;4978302;28;20495;-71
2023/12/09 12:03:15;;;;;;;20.57;19.67;;;23.30;49.20;;;;;;4973189;28;20448;-71
2023/12/09 12:05:47;;;;;;;18.57;17.97;;;23.20;49.20;;;;;;4972098;28;20487;-69
2023/12/09 12:08:16;;;;;;;19.90;19.23;;;23.30;49.30;;;;;;4975384;28;20523;-72
2023/12/09 12:10:43;;;;;;;18.13;17.53;;;23.30;49.20;;;;;;4973072;28;20491;-71
2023/12/09 12:13:14;;;;;;;19.00;18.30;;;23.30;49.30;;;;;;4973052;28;20530;-70
2023/12/09 12:15:44;;;;;;;18.20;17.70;;;23.30;49.10;;;;;;4972969;28;20934;-70
2023/12/09 12:18:17;;;;;;;18.43;17.57;;;23.20;49.10;;;;;;4973405;28;20444;-70
2023/12/09 12:20:47;;;;;;;19.20;18.60;;;23.20;49.20;;;;;;4973008;28;20491;-70
2023/12/09 12:23:14;;;;;;;19.93;19.30;;;23.20;49.80;;;;;;4972959;28;20932;-70
2023/12/09 12:25:42;;;;;;;18.70;18.10;;;23.20;49.90;;;;;;4972893;28;20496;-70
2023/12/09 12:28:24;;;;;;;18.90;18.00;;;23.20;50.30;;;;;;4978968;28;20502;-70
2023/12/09 12:30:53;;;;;;;18.37;17.87;;;23.20;49.60;;;;;;4964751;28;20522;-69
2023/12/09 12:33:22;;;;;;;18.17;17.50;;;23.20;49.60;;;;;;4971995;28;20492;-71
2023/12/09 12:35:55;;;;;;;18.23;17.73;;;23.20;49.50;;;;;;4972882;28;20471;-70
2023/12/09 12:38:23;;;;;;;19.40;18.70;;;23.20;49.50;;;;;;4972908;28;21010;-71